Aérodrome :
LOGIN :

S'inscrire | Disclaimer

   EN    FR    IT 

 










Légende :    VFR   VFR Marginal   IFR   IFR Intensif   IFR Très Intensif
Visi : 
Plafond : 
>= 8 km
>= 3000ft
5 à 8 km
1000 à 3000 ft
1500m à 5 km
500 à 1000 ft
800 à 1500m
200 à 500 ft
< 800m
< 200 ft
Symboles :   Orages  Brouillard  Fortes neiges  Fortes précipitations  Vent > 20 kt
SIGMETs :   Divers  Orages  Givrage  Turbulence  Onde Orograph.  Cendres Volcan.






- Altitude de l'aérodrome : 659 ft
- Code IATA : LGG


EBLG - Liège

DERNIER METAR :
  • 061450Z 20017KT 9999 -RA BKN009 05/04 Q1009 TEMPO 21020G30KT 5000 RA BKN007

METARs EXPIRÉS :
  • 061420Z 20020KT 9999 SCT010 BKN013 05/04 Q1009 TEMPO 21020G30KT 5000 RA BKN007
  • 061350Z 20017KT 9999 -RA FEW007 BKN010 05/03 Q1009 TEMPO 21020G30KT 5000 RA BKN007
  • 061320Z 20018G28KT 6000 -RA SCT010 BKN012 05/03 Q1010 TEMPO 21020G30KT 5000 RA BKN007
  • 061250Z 20019G29KT 9999 -RA BKN011 05/03 Q1010 TEMPO 21020G30KT 5000 RA BKN007
  • 061220Z 20020KT 9999 BKN014 05/03 Q1011 TEMPO 21020G30KT 5000 RA BKN007

TAF TAF EBLG
Valide du 06 à 12h jusqu'au 07 à 18h UTC


061110Z 0612/0718 21016KT 7000 -RA SCT007 BKN012
TEMPO 0612/0621 21018G28KT 3000 RADZ BKN005
PROB30
TEMPO 0621/0623 23020G35KT 4000 SCT006 BKN011TCU
BECMG 0623/0701 BKN016
PROB40
TEMPO 0701/0708 BKN007



MET'MAP, la Météo Aéronautique d'un coup d'oeil ! - Copyright ORBIFLY Décembre 2007 - Disclaimer

ORBIFLY MET'MAP TEAM :

Programmation & Développement : Alexandra Zaïnal
Sur une idée originale de : Baudouin d'Aumeries
Assistance à la programmation : Marc-Olivier Méhu
Soutien technique & logistique : Manuel Goepfert

Contact : metmap@orbifly.com




SOURCES & CREDITS :

   NOAA